sensor_id;sensor_type;location;lat;lon;timestamp;P1;durP1;ratioP1;P2;durP2;ratioP2
74876;SDS011;63425;44.786;37.682;2022-09-17T00:01:20;32.92;;;18.92;;
74876;SDS011;63425;44.786;37.682;2022-09-17T00:03:53;32.08;;;19.05;;
74876;SDS011;63425;44.786;37.682;2022-09-17T00:06:22;33.72;;;19.20;;
74876;SDS011;63425;44.786;37.682;2022-09-17T00:08:49;34.53;;;18.20;;
74876;SDS011;63425;44.786;37.682;2022-09-17T00:11:17;33.47;;;17.83;;
74876;SDS011;63425;44.786;37.682;2022-09-17T00:13:48;38.65;;;18.05;;
74876;SDS011;63425;44.786;37.682;2022-09-17T00:16:36;32.75;;;18.42;;
74876;SDS011;63425;44.786;37.682;2022-09-17T00:19:14;44.55;;;21.40;;
74876;SDS011;63425;44.786;37.682;2022-09-17T00:21:41;38.92;;;19.33;;
74876;SDS011;63425;44.786;37.682;2022-09-17T00:24:09;35.17;;;19.70;;
74876;SDS011;63425;44.786;37.682;2022-09-17T00:26:36;40.85;;;19.65;;
74876;SDS011;63425;44.786;37.682;2022-09-17T00:29:05;31.70;;;17.88;;
74876;SDS011;63425;44.786;37.682;2022-09-17T00:31:32;30.75;;;17.52;;
74876;SDS011;63425;44.786;37.682;2022-09-17T00:34:00;34.33;;;17.00;;
74876;SDS011;63425;44.786;37.682;2022-09-17T00:36:30;41.03;;;18.30;;
74876;SDS011;63425;44.786;37.682;2022-09-17T00:38:56;36.50;;;17.92;;
74876;SDS011;63425;44.786;37.682;2022-09-17T00:41:27;29.70;;;18.27;;
74876;SDS011;63425;44.786;37.682;2022-09-17T00:49:30;36.95;;;17.85;;
74876;SDS011;63425;44.786;37.682;2022-09-17T00:52:04;36.38;;;18.33;;
74876;SDS011;63425;44.786;37.682;2022-09-17T00:54:31;36.13;;;18.70;;
74876;SDS011;63425;44.786;37.682;2022-09-17T00:56:59;29.65;;;17.38;;
74876;SDS011;63425;44.786;37.682;2022-09-17T00:59:31;34.10;;;16.07;;
74876;SDS011;63425;44.786;37.682;2022-09-17T01:01:59;33.38;;;17.98;;
74876;SDS011;63425;44.786;37.682;2022-09-17T01:04:29;41.85;;;21.38;;
74876;SDS011;63425;44.786;37.682;2022-09-17T01:25:37;39.07;;;16.97;;
74876;SDS011;63425;44.786;37.682;2022-09-17T01:31:16;30.05;;;17.23;;
74876;SDS011;63425;44.786;37.682;2022-09-17T01:39:27;29.40;;;17.70;;
74876;SDS011;63425;44.786;37.682;2022-09-17T01:44:41;31.52;;;18.52;;
74876;SDS011;63425;44.786;37.682;2022-09-17T01:47:17;33.45;;;17.83;;
74876;SDS011;63425;44.786;37.682;2022-09-17T01:49:47;37.40;;;17.63;;
74876;SDS011;63425;44.786;37.682;2022-09-17T01:52:20;31.30;;;18.50;;
74876;SDS011;63425;44.786;37.682;2022-09-17T01:54:48;29.88;;;16.40;;
74876;SDS011;63425;44.786;37.682;2022-09-17T01:57:32;38.22;;;19.13;;
74876;SDS011;63425;44.786;37.682;2022-09-17T02:00:03;49.30;;;18.15;;
74876;SDS011;63425;44.786;37.682;2022-09-17T02:02:45;40.05;;;17.92;;
74876;SDS011;63425;44.786;37.682;2022-09-17T02:07:56;39.78;;;19.38;;
74876;SDS011;63425;44.786;37.682;2022-09-17T02:10:28;38.78;;;17.92;;
74876;SDS011;63425;44.786;37.682;2022-09-17T02:12:56;32.42;;;16.20;;
74876;SDS011;63425;44.786;37.682;2022-09-17T02:15:32;29.80;;;15.38;;
74876;SDS011;63425;44.786;37.682;2022-09-17T02:18:14;35.83;;;16.40;;
74876;SDS011;63425;44.786;37.682;2022-09-17T02:20:47;34.17;;;16.58;;
74876;SDS011;63425;44.786;37.682;2022-09-17T02:23:21;26.38;;;14.75;;
74876;SDS011;63425;44.786;37.682;2022-09-17T02:25:51;27.25;;;13.48;;
74876;SDS011;63425;44.786;37.682;2022-09-17T02:28:25;34.50;;;16.30;;
74876;SDS011;63425;44.786;37.682;2022-09-17T02:30:59;33.87;;;15.80;;
74876;SDS011;63425;44.786;37.682;2022-09-17T02:33:26;37.85;;;15.25;;
74876;SDS011;63425;44.786;37.682;2022-09-17T02:35:55;31.23;;;13.70;;
74876;SDS011;63425;44.786;37.682;2022-09-17T02:38:25;46.13;;;14.65;;
74876;SDS011;63425;44.786;37.682;2022-09-17T02:40:53;34.15;;;14.52;;
74876;SDS011;63425;44.786;37.682;2022-09-17T02:43:26;32.70;;;14.93;;
74876;SDS011;63425;44.786;37.682;2022-09-17T02:49:01;35.40;;;15.60;;
74876;SDS011;63425;44.786;37.682;2022-09-17T02:51:39;35.50;;;15.10;;
74876;SDS011;63425;44.786;37.682;2022-09-17T02:54:25;46.53;;;14.73;;
74876;SDS011;63425;44.786;37.682;2022-09-17T02:57:00;24.27;;;12.73;;
74876;SDS011;63425;44.786;37.682;2022-09-17T02:59:59;26.67;;;12.05;;
74876;SDS011;63425;44.786;37.682;2022-09-17T03:02:32;29.10;;;14.02;;
74876;SDS011;63425;44.786;37.682;2022-09-17T03:05:02;26.67;;;13.38;;
74876;SDS011;63425;44.786;37.682;2022-09-17T03:07:30;33.22;;;14.02;;
74876;SDS011;63425;44.786;37.682;2022-09-17T03:09:57;26.03;;;12.07;;
74876;SDS011;63425;44.786;37.682;2022-09-17T03:12:24;30.38;;;12.45;;
74876;SDS011;63425;44.786;37.682;2022-09-17T03:14:51;28.10;;;12.77;;
74876;SDS011;63425;44.786;37.682;2022-09-17T03:17:20;24.30;;;12.82;;
74876;SDS011;63425;44.786;37.682;2022-09-17T03:19:46;24.52;;;12.73;;
74876;SDS011;63425;44.786;37.682;2022-09-17T03:22:13;27.97;;;12.50;;
74876;SDS011;63425;44.786;37.682;2022-09-17T03:24:40;31.17;;;12.18;;
74876;SDS011;63425;44.786;37.682;2022-09-17T03:27:09;26.60;;;11.63;;
74876;SDS011;63425;44.786;37.682;2022-09-17T03:29:36;32.40;;;11.50;;
74876;SDS011;63425;44.786;37.682;2022-09-17T03:32:05;25.33;;;11.75;;
74876;SDS011;63425;44.786;37.682;2022-09-17T03:34:31;29.93;;;12.20;;
74876;SDS011;63425;44.786;37.682;2022-09-17T03:36:59;26.48;;;11.88;;
74876;SDS011;63425;44.786;37.682;2022-09-17T03:39:30;26.00;;;11.35;;
74876;SDS011;63425;44.786;37.682;2022-09-17T03:41:56;26.17;;;10.93;;
74876;SDS011;63425;44.786;37.682;2022-09-17T03:44:22;335.50;;;44.92;;
74876;SDS011;63425;44.786;37.682;2022-09-17T03:46:50;28.23;;;10.98;;
74876;SDS011;63425;44.786;37.682;2022-09-17T03:49:20;22.08;;;10.70;;
74876;SDS011;63425;44.786;37.682;2022-09-17T03:51:50;25.90;;;10.18;;
74876;SDS011;63425;44.786;37.682;2022-09-17T03:54:19;16.42;;;8.65;;
74876;SDS011;63425;44.786;37.682;2022-09-17T03:56:49;18.63;;;8.17;;
74876;SDS011;63425;44.786;37.682;2022-09-17T03:59:19;15.20;;;8.20;;
74876;SDS011;63425;44.786;37.682;2022-09-17T04:01:50;22.20;;;8.75;;
74876;SDS011;63425;44.786;37.682;2022-09-17T04:04:19;17.20;;;7.90;;
74876;SDS011;63425;44.786;37.682;2022-09-17T04:06:51;13.57;;;7.72;;
74876;SDS011;63425;44.786;37.682;2022-09-17T04:09:23;24.90;;;8.90;;
74876;SDS011;63425;44.786;37.682;2022-09-17T04:11:52;21.83;;;9.32;;
74876;SDS011;63425;44.786;37.682;2022-09-17T04:14:21;25.20;;;9.43;;
74876;SDS011;63425;44.786;37.682;2022-09-17T04:16:47;25.25;;;10.07;;
74876;SDS011;63425;44.786;37.682;2022-09-17T04:19:17;20.60;;;9.27;;
74876;SDS011;63425;44.786;37.682;2022-09-17T04:21:43;84.80;;;12.83;;
74876;SDS011;63425;44.786;37.682;2022-09-17T04:24:10;52.35;;;11.07;;
74876;SDS011;63425;44.786;37.682;2022-09-17T04:26:37;28.45;;;10.13;;
74876;SDS011;63425;44.786;37.682;2022-09-17T04:29:03;31.15;;;8.60;;
74876;SDS011;63425;44.786;37.682;2022-09-17T04:31:32;29.88;;;8.68;;
74876;SDS011;63425;44.786;37.682;2022-09-17T04:34:01;27.90;;;8.83;;
74876;SDS011;63425;44.786;37.682;2022-09-17T04:36:30;24.23;;;10.15;;
74876;SDS011;63425;44.786;37.682;2022-09-17T04:38:57;26.38;;;10.38;;
74876;SDS011;63425;44.786;37.682;2022-09-17T04:41:23;39.90;;;10.60;;
74876;SDS011;63425;44.786;37.682;2022-09-17T04:43:51;22.85;;;9.18;;
74876;SDS011;63425;44.786;37.682;2022-09-17T04:46:17;29.10;;;9.53;;
74876;SDS011;63425;44.786;37.682;2022-09-17T04:48:47;21.42;;;9.98;;
74876;SDS011;63425;44.786;37.682;2022-09-17T04:51:16;21.33;;;9.63;;
74876;SDS011;63425;44.786;37.682;2022-09-17T04:53:43;29.50;;;10.70;;
74876;SDS011;63425;44.786;37.682;2022-09-17T04:56:12;23.95;;;9.70;;
74876;SDS011;63425;44.786;37.682;2022-09-17T04:58:41;22.33;;;9.70;;
74876;SDS011;63425;44.786;37.682;2022-09-17T05:01:12;25.00;;;11.00;;
74876;SDS011;63425;44.786;37.682;2022-09-17T05:03:41;26.90;;;12.13;;
74876;SDS011;63425;44.786;37.682;2022-09-17T05:06:07;26.70;;;12.10;;
74876;SDS011;63425;44.786;37.682;2022-09-17T05:08:34;26.23;;;11.93;;
74876;SDS011;63425;44.786;37.682;2022-09-17T05:11:02;27.33;;;11.23;;
74876;SDS011;63425;44.786;37.682;2022-09-17T05:13:31;37.80;;;12.45;;
74876;SDS011;63425;44.786;37.682;2022-09-17T05:15:59;35.95;;;14.88;;
74876;SDS011;63425;44.786;37.682;2022-09-17T05:18:30;40.88;;;15.77;;
74876;SDS011;63425;44.786;37.682;2022-09-17T05:20:57;42.13;;;16.05;;
74876;SDS011;63425;44.786;37.682;2022-09-17T05:23:24;33.03;;;12.13;;
74876;SDS011;63425;44.786;37.682;2022-09-17T05:25:56;31.95;;;14.40;;
74876;SDS011;63425;44.786;37.682;2022-09-17T05:28:24;36.00;;;16.17;;
74876;SDS011;63425;44.786;37.682;2022-09-17T05:30:51;31.50;;;16.92;;
74876;SDS011;63425;44.786;37.682;2022-09-17T05:33:18;43.05;;;19.67;;
74876;SDS011;63425;44.786;37.682;2022-09-17T05:35:45;35.13;;;17.50;;
74876;SDS011;63425;44.786;37.682;2022-09-17T05:38:14;26.65;;;15.35;;
74876;SDS011;63425;44.786;37.682;2022-09-17T05:40:42;30.75;;;13.98;;
74876;SDS011;63425;44.786;37.682;2022-09-17T05:43:08;27.35;;;11.93;;
74876;SDS011;63425;44.786;37.682;2022-09-17T05:45:37;22.55;;;10.90;;
74876;SDS011;63425;44.786;37.682;2022-09-17T05:48:05;19.77;;;10.53;;
74876;SDS011;63425;44.786;37.682;2022-09-17T05:50:33;21.27;;;9.30;;
74876;SDS011;63425;44.786;37.682;2022-09-17T05:53:05;33.17;;;10.77;;
74876;SDS011;63425;44.786;37.682;2022-09-17T05:55:32;27.65;;;11.35;;
74876;SDS011;63425;44.786;37.682;2022-09-17T05:57:59;21.35;;;9.10;;
74876;SDS011;63425;44.786;37.682;2022-09-17T06:00:29;25.20;;;9.43;;
74876;SDS011;63425;44.786;37.682;2022-09-17T06:02:56;27.40;;;9.63;;
74876;SDS011;63425;44.786;37.682;2022-09-17T06:05:23;23.05;;;9.52;;
74876;SDS011;63425;44.786;37.682;2022-09-17T06:07:53;28.30;;;8.40;;
74876;SDS011;63425;44.786;37.682;2022-09-17T06:10:25;31.17;;;8.53;;
74876;SDS011;63425;44.786;37.682;2022-09-17T06:12:57;22.17;;;8.20;;
74876;SDS011;63425;44.786;37.682;2022-09-17T06:15:26;19.00;;;6.97;;
74876;SDS011;63425;44.786;37.682;2022-09-17T06:17:55;17.83;;;6.57;;
74876;SDS011;63425;44.786;37.682;2022-09-17T06:20:26;21.27;;;7.43;;
74876;SDS011;63425;44.786;37.682;2022-09-17T06:22:59;17.40;;;5.90;;
74876;SDS011;63425;44.786;37.682;2022-09-17T06:25:25;20.05;;;6.78;;
74876;SDS011;63425;44.786;37.682;2022-09-17T06:27:54;18.92;;;6.85;;
74876;SDS011;63425;44.786;37.682;2022-09-17T06:30:20;18.75;;;7.93;;
74876;SDS011;63425;44.786;37.682;2022-09-17T06:32:53;19.93;;;7.37;;
74876;SDS011;63425;44.786;37.682;2022-09-17T06:35:23;21.15;;;8.48;;
74876;SDS011;63425;44.786;37.682;2022-09-17T06:37:50;24.95;;;7.53;;
74876;SDS011;63425;44.786;37.682;2022-09-17T06:40:17;21.40;;;7.45;;
74876;SDS011;63425;44.786;37.682;2022-09-17T06:42:43;17.77;;;7.53;;
74876;SDS011;63425;44.786;37.682;2022-09-17T06:45:09;16.80;;;6.13;;
74876;SDS011;63425;44.786;37.682;2022-09-17T06:47:37;23.20;;;6.72;;
74876;SDS011;63425;44.786;37.682;2022-09-17T06:50:06;15.95;;;6.15;;
74876;SDS011;63425;44.786;37.682;2022-09-17T06:52:35;14.52;;;5.68;;
74876;SDS011;63425;44.786;37.682;2022-09-17T06:55:03;14.07;;;6.00;;
74876;SDS011;63425;44.786;37.682;2022-09-17T06:57:32;14.30;;;5.27;;
74876;SDS011;63425;44.786;37.682;2022-09-17T07:00:03;17.42;;;5.53;;
74876;SDS011;63425;44.786;37.682;2022-09-17T07:02:29;21.15;;;7.95;;
74876;SDS011;63425;44.786;37.682;2022-09-17T07:04:56;22.98;;;8.48;;
74876;SDS011;63425;44.786;37.682;2022-09-17T07:07:25;14.63;;;6.10;;
74876;SDS011;63425;44.786;37.682;2022-09-17T07:09:52;17.97;;;6.27;;
74876;SDS011;63425;44.786;37.682;2022-09-17T07:12:18;17.20;;;4.50;;
74876;SDS011;63425;44.786;37.682;2022-09-17T07:14:45;17.48;;;4.78;;
74876;SDS011;63425;44.786;37.682;2022-09-17T07:17:12;16.70;;;4.90;;
74876;SDS011;63425;44.786;37.682;2022-09-17T07:19:39;17.33;;;4.35;;
74876;SDS011;63425;44.786;37.682;2022-09-17T07:22:05;15.43;;;4.47;;
74876;SDS011;63425;44.786;37.682;2022-09-17T07:24:32;16.50;;;5.07;;
74876;SDS011;63425;44.786;37.682;2022-09-17T07:27:14;17.17;;;4.38;;
74876;SDS011;63425;44.786;37.682;2022-09-17T07:29:42;16.92;;;4.28;;
74876;SDS011;63425;44.786;37.682;2022-09-17T07:32:12;17.40;;;5.00;;
74876;SDS011;63425;44.786;37.682;2022-09-17T07:34:39;15.45;;;4.82;;
74876;SDS011;63425;44.786;37.682;2022-09-17T07:37:08;17.77;;;5.07;;
74876;SDS011;63425;44.786;37.682;2022-09-17T07:39:36;17.58;;;5.13;;
74876;SDS011;63425;44.786;37.682;2022-09-17T07:42:02;13.02;;;4.07;;
74876;SDS011;63425;44.786;37.682;2022-09-17T07:44:29;14.53;;;4.90;;
74876;SDS011;63425;44.786;37.682;2022-09-17T07:46:57;25.45;;;4.80;;
74876;SDS011;63425;44.786;37.682;2022-09-17T07:49:24;13.13;;;3.35;;
74876;SDS011;63425;44.786;37.682;2022-09-17T07:51:52;12.27;;;3.50;;
74876;SDS011;63425;44.786;37.682;2022-09-17T07:54:19;16.25;;;4.25;;
74876;SDS011;63425;44.786;37.682;2022-09-17T07:56:47;12.07;;;3.50;;
74876;SDS011;63425;44.786;37.682;2022-09-17T07:59:13;16.48;;;3.78;;
74876;SDS011;63425;44.786;37.682;2022-09-17T08:01:39;12.38;;;3.20;;
74876;SDS011;63425;44.786;37.682;2022-09-17T08:04:07;14.52;;;4.13;;
74876;SDS011;63425;44.786;37.682;2022-09-17T08:06:42;14.27;;;3.92;;
74876;SDS011;63425;44.786;37.682;2022-09-17T08:09:14;14.10;;;3.90;;
74876;SDS011;63425;44.786;37.682;2022-09-17T08:11:44;13.07;;;4.38;;
74876;SDS011;63425;44.786;37.682;2022-09-17T08:14:13;12.13;;;3.40;;
74876;SDS011;63425;44.786;37.682;2022-09-17T08:16:43;16.75;;;4.13;;
74876;SDS011;63425;44.786;37.682;2022-09-17T08:19:23;20.83;;;4.60;;
74876;SDS011;63425;44.786;37.682;2022-09-17T08:21:54;11.87;;;3.50;;
74876;SDS011;63425;44.786;37.682;2022-09-17T08:24:22;15.13;;;4.32;;
74876;SDS011;63425;44.786;37.682;2022-09-17T08:26:49;12.52;;;4.07;;
74876;SDS011;63425;44.786;37.682;2022-09-17T08:29:19;13.88;;;3.15;;
74876;SDS011;63425;44.786;37.682;2022-09-17T08:31:45;13.52;;;4.25;;
74876;SDS011;63425;44.786;37.682;2022-09-17T08:34:11;14.70;;;4.90;;
74876;SDS011;63425;44.786;37.682;2022-09-17T08:36:37;14.05;;;4.32;;
74876;SDS011;63425;44.786;37.682;2022-09-17T08:39:05;15.20;;;4.22;;
74876;SDS011;63425;44.786;37.682;2022-09-17T08:46:51;14.40;;;3.50;;
74876;SDS011;63425;44.786;37.682;2022-09-17T08:49:28;14.20;;;3.25;;
74876;SDS011;63425;44.786;37.682;2022-09-17T09:00:14;18.70;;;4.43;;
74876;SDS011;63425;44.786;37.682;2022-09-17T09:05:19;18.75;;;4.43;;
74876;SDS011;63425;44.786;37.682;2022-09-17T09:07:59;15.63;;;3.47;;
74876;SDS011;63425;44.786;37.682;2022-09-17T09:10:31;12.88;;;3.60;;
74876;SDS011;63425;44.786;37.682;2022-09-17T09:13:03;10.37;;;2.87;;
74876;SDS011;63425;44.786;37.682;2022-09-17T09:15:39;12.52;;;2.90;;
74876;SDS011;63425;44.786;37.682;2022-09-17T09:18:16;11.63;;;3.38;;
74876;SDS011;63425;44.786;37.682;2022-09-17T09:20:53;12.32;;;3.05;;
74876;SDS011;63425;44.786;37.682;2022-09-17T09:23:26;14.25;;;3.55;;
74876;SDS011;63425;44.786;37.682;2022-09-17T09:26:22;13.00;;;4.23;;
74876;SDS011;63425;44.786;37.682;2022-09-17T09:34:12;14.93;;;3.55;;
74876;SDS011;63425;44.786;37.682;2022-09-17T09:36:39;14.40;;;4.25;;
74876;SDS011;63425;44.786;37.682;2022-09-17T09:39:25;12.67;;;3.30;;
74876;SDS011;63425;44.786;37.682;2022-09-17T09:42:03;15.23;;;3.85;;
74876;SDS011;63425;44.786;37.682;2022-09-17T09:44:36;18.35;;;4.65;;
74876;SDS011;63425;44.786;37.682;2022-09-17T09:47:15;16.08;;;4.18;;
74876;SDS011;63425;44.786;37.682;2022-09-17T09:57:46;14.38;;;4.13;;
74876;SDS011;63425;44.786;37.682;2022-09-17T10:00:23;10.55;;;2.30;;
74876;SDS011;63425;44.786;37.682;2022-09-17T10:03:15;11.07;;;1.85;;
74876;SDS011;63425;44.786;37.682;2022-09-17T10:05:57;12.43;;;2.60;;
74876;SDS011;63425;44.786;37.682;2022-09-17T10:08:28;12.05;;;2.58;;
74876;SDS011;63425;44.786;37.682;2022-09-17T10:13:27;13.57;;;2.78;;
74876;SDS011;63425;44.786;37.682;2022-09-17T10:15:56;12.27;;;2.95;;
74876;SDS011;63425;44.786;37.682;2022-09-17T10:18:42;11.97;;;2.67;;
74876;SDS011;63425;44.786;37.682;2022-09-17T10:21:29;10.73;;;2.35;;
74876;SDS011;63425;44.786;37.682;2022-09-17T10:24:08;10.93;;;2.90;;
74876;SDS011;63425;44.786;37.682;2022-09-17T10:26:37;14.23;;;3.45;;
74876;SDS011;63425;44.786;37.682;2022-09-17T10:29:10;11.82;;;2.80;;
74876;SDS011;63425;44.786;37.682;2022-09-17T10:31:47;11.97;;;3.17;;
74876;SDS011;63425;44.786;37.682;2022-09-17T10:34:20;11.15;;;2.78;;
74876;SDS011;63425;44.786;37.682;2022-09-17T10:36:47;10.40;;;3.22;;
74876;SDS011;63425;44.786;37.682;2022-09-17T10:39:33;13.68;;;3.08;;
74876;SDS011;63425;44.786;37.682;2022-09-17T10:44:36;19.23;;;4.33;;
74876;SDS011;63425;44.786;37.682;2022-09-17T10:47:11;13.27;;;3.38;;
74876;SDS011;63425;44.786;37.682;2022-09-17T10:49:47;9.88;;;3.47;;
74876;SDS011;63425;44.786;37.682;2022-09-17T10:52:30;15.52;;;3.40;;
74876;SDS011;63425;44.786;37.682;2022-09-17T10:58:03;14.30;;;3.90;;
74876;SDS011;63425;44.786;37.682;2022-09-17T11:03:28;17.13;;;3.83;;
74876;SDS011;63425;44.786;37.682;2022-09-17T11:06:21;11.55;;;2.30;;
74876;SDS011;63425;44.786;37.682;2022-09-17T11:22:14;12.77;;;2.78;;
74876;SDS011;63425;44.786;37.682;2022-09-17T11:30:16;12.63;;;2.95;;
74876;SDS011;63425;44.786;37.682;2022-09-17T11:35:26;11.38;;;2.67;;
74876;SDS011;63425;44.786;37.682;2022-09-17T11:40:40;11.00;;;3.97;;
74876;SDS011;63425;44.786;37.682;2022-09-17T11:45:45;17.63;;;4.78;;
74876;SDS011;63425;44.786;37.682;2022-09-17T11:48:19;17.50;;;3.22;;
74876;SDS011;63425;44.786;37.682;2022-09-17T11:51:02;13.90;;;4.00;;
74876;SDS011;63425;44.786;37.682;2022-09-17T11:53:31;23.45;;;4.70;;
74876;SDS011;63425;44.786;37.682;2022-09-17T11:56:24;10.25;;;3.40;;
74876;SDS011;63425;44.786;37.682;2022-09-17T12:07:14;10.32;;;2.92;;
74876;SDS011;63425;44.786;37.682;2022-09-17T12:09:47;12.40;;;3.55;;
74876;SDS011;63425;44.786;37.682;2022-09-17T12:12:17;14.82;;;4.05;;
74876;SDS011;63425;44.786;37.682;2022-09-17T12:14:49;17.27;;;4.63;;
74876;SDS011;63425;44.786;37.682;2022-09-17T12:17:27;15.63;;;4.07;;
74876;SDS011;63425;44.786;37.682;2022-09-17T12:19:58;15.50;;;4.25;;
74876;SDS011;63425;44.786;37.682;2022-09-17T12:22:38;11.27;;;4.35;;
74876;SDS011;63425;44.786;37.682;2022-09-17T12:25:10;17.02;;;3.75;;
74876;SDS011;63425;44.786;37.682;2022-09-17T12:30:19;18.57;;;5.10;;
74876;SDS011;63425;44.786;37.682;2022-09-17T12:41:07;12.02;;;3.55;;
74876;SDS011;63425;44.786;37.682;2022-09-17T13:00:18;28.67;;;14.35;;
74876;SDS011;63425;44.786;37.682;2022-09-17T13:06:01;17.20;;;8.25;;
74876;SDS011;63425;44.786;37.682;2022-09-17T13:11:26;28.50;;;10.07;;
74876;SDS011;63425;44.786;37.682;2022-09-17T13:19:49;19.15;;;6.95;;
74876;SDS011;63425;44.786;37.682;2022-09-17T13:22:27;16.88;;;7.03;;
74876;SDS011;63425;44.786;37.682;2022-09-17T13:25:02;23.30;;;7.73;;
74876;SDS011;63425;44.786;37.682;2022-09-17T13:27:29;22.77;;;10.55;;
74876;SDS011;63425;44.786;37.682;2022-09-17T13:29:56;18.25;;;5.35;;
74876;SDS011;63425;44.786;37.682;2022-09-17T13:37:42;28.23;;;8.63;;
74876;SDS011;63425;44.786;37.682;2022-09-17T13:43:23;20.08;;;8.50;;
74876;SDS011;63425;44.786;37.682;2022-09-17T13:48:27;18.58;;;6.10;;
74876;SDS011;63425;44.786;37.682;2022-09-17T13:50:55;22.47;;;10.87;;
74876;SDS011;63425;44.786;37.682;2022-09-17T13:53:26;22.20;;;10.05;;
74876;SDS011;63425;44.786;37.682;2022-09-17T13:55:56;20.83;;;7.85;;
74876;SDS011;63425;44.786;37.682;2022-09-17T13:58:32;11.80;;;4.32;;
74876;SDS011;63425;44.786;37.682;2022-09-17T14:04:03;22.63;;;10.80;;
74876;SDS011;63425;44.786;37.682;2022-09-17T14:09:04;22.88;;;10.27;;
74876;SDS011;63425;44.786;37.682;2022-09-17T14:11:47;14.20;;;4.55;;
74876;SDS011;63425;44.786;37.682;2022-09-17T14:16:47;24.53;;;10.97;;
74876;SDS011;63425;44.786;37.682;2022-09-17T14:21:43;19.20;;;8.60;;
74876;SDS011;63425;44.786;37.682;2022-09-17T14:24:24;22.55;;;11.38;;
74876;SDS011;63425;44.786;37.682;2022-09-17T14:29:55;20.37;;;12.10;;
74876;SDS011;63425;44.786;37.682;2022-09-17T14:35:00;19.10;;;6.00;;
74876;SDS011;63425;44.786;37.682;2022-09-17T14:37:38;24.77;;;9.88;;
74876;SDS011;63425;44.786;37.682;2022-09-17T14:40:15;23.45;;;8.40;;
74876;SDS011;63425;44.786;37.682;2022-09-17T14:42:45;24.77;;;10.10;;
74876;SDS011;63425;44.786;37.682;2022-09-17T14:45:29;21.35;;;9.30;;
74876;SDS011;63425;44.786;37.682;2022-09-17T14:50:46;28.58;;;8.75;;
74876;SDS011;63425;44.786;37.682;2022-09-17T14:53:17;19.73;;;6.85;;
74876;SDS011;63425;44.786;37.682;2022-09-17T14:55:46;21.27;;;9.00;;
74876;SDS011;63425;44.786;37.682;2022-09-17T14:58:31;20.73;;;6.10;;
74876;SDS011;63425;44.786;37.682;2022-09-17T15:00:58;21.52;;;5.82;;
74876;SDS011;63425;44.786;37.682;2022-09-17T15:03:25;19.52;;;6.70;;
74876;SDS011;63425;44.786;37.682;2022-09-17T15:05:51;17.73;;;6.65;;
74876;SDS011;63425;44.786;37.682;2022-09-17T15:08:19;43.07;;;10.27;;
74876;SDS011;63425;44.786;37.682;2022-09-17T15:10:54;34.50;;;13.45;;
74876;SDS011;63425;44.786;37.682;2022-09-17T15:16:25;37.92;;;14.90;;
74876;SDS011;63425;44.786;37.682;2022-09-17T15:18:54;25.85;;;11.88;;
74876;SDS011;63425;44.786;37.682;2022-09-17T15:21:33;35.83;;;13.10;;
74876;SDS011;63425;44.786;37.682;2022-09-17T15:24:07;33.33;;;17.30;;
74876;SDS011;63425;44.786;37.682;2022-09-17T15:26:46;47.30;;;20.05;;
74876;SDS011;63425;44.786;37.682;2022-09-17T15:29:15;47.72;;;20.75;;
74876;SDS011;63425;44.786;37.682;2022-09-17T15:31:45;29.88;;;16.15;;
74876;SDS011;63425;44.786;37.682;2022-09-17T15:34:15;31.77;;;14.37;;
74876;SDS011;63425;44.786;37.682;2022-09-17T15:37:02;33.25;;;12.82;;
74876;SDS011;63425;44.786;37.682;2022-09-17T15:39:39;39.13;;;14.32;;
74876;SDS011;63425;44.786;37.682;2022-09-17T15:42:20;82.35;;;14.70;;
74876;SDS011;63425;44.786;37.682;2022-09-17T15:44:47;25.50;;;9.60;;
74876;SDS011;63425;44.786;37.682;2022-09-17T15:50:31;47.45;;;14.07;;
74876;SDS011;63425;44.786;37.682;2022-09-17T15:55:27;34.55;;;11.50;;
74876;SDS011;63425;44.786;37.682;2022-09-17T15:57:57;32.13;;;8.55;;
74876;SDS011;63425;44.786;37.682;2022-09-17T16:00:25;30.13;;;13.80;;
74876;SDS011;63425;44.786;37.682;2022-09-17T16:02:55;29.30;;;11.05;;
74876;SDS011;63425;44.786;37.682;2022-09-17T16:07:54;25.38;;;9.50;;
74876;SDS011;63425;44.786;37.682;2022-09-17T16:10:25;21.20;;;9.07;;
74876;SDS011;63425;44.786;37.682;2022-09-17T16:12:52;30.33;;;8.87;;
74876;SDS011;63425;44.786;37.682;2022-09-17T16:15:20;25.83;;;8.40;;
74876;SDS011;63425;44.786;37.682;2022-09-17T16:17:49;25.90;;;8.45;;
74876;SDS011;63425;44.786;37.682;2022-09-17T16:20:20;24.42;;;8.07;;
74876;SDS011;63425;44.786;37.682;2022-09-17T16:22:48;24.55;;;8.80;;
74876;SDS011;63425;44.786;37.682;2022-09-17T16:25:17;19.63;;;9.07;;
74876;SDS011;63425;44.786;37.682;2022-09-17T16:27:49;24.38;;;8.77;;
74876;SDS011;63425;44.786;37.682;2022-09-17T16:30:20;44.25;;;10.85;;
74876;SDS011;63425;44.786;37.682;2022-09-17T16:32:52;40.67;;;8.30;;
74876;SDS011;63425;44.786;37.682;2022-09-17T16:35:23;21.15;;;8.70;;
74876;SDS011;63425;44.786;37.682;2022-09-17T16:37:50;25.48;;;8.48;;
74876;SDS011;63425;44.786;37.682;2022-09-17T16:40:20;24.23;;;8.82;;
74876;SDS011;63425;44.786;37.682;2022-09-17T16:42:47;28.55;;;8.27;;
74876;SDS011;63425;44.786;37.682;2022-09-17T16:45:13;33.40;;;9.55;;
74876;SDS011;63425;44.786;37.682;2022-09-17T16:47:45;57.70;;;9.75;;
74876;SDS011;63425;44.786;37.682;2022-09-17T16:50:15;24.40;;;7.50;;
74876;SDS011;63425;44.786;37.682;2022-09-17T16:52:45;24.80;;;8.00;;
74876;SDS011;63425;44.786;37.682;2022-09-17T16:55:15;19.25;;;7.47;;
74876;SDS011;63425;44.786;37.682;2022-09-17T16:57:42;29.70;;;8.50;;
74876;SDS011;63425;44.786;37.682;2022-09-17T17:00:09;20.85;;;7.57;;
74876;SDS011;63425;44.786;37.682;2022-09-17T17:03:00;23.08;;;8.10;;
74876;SDS011;63425;44.786;37.682;2022-09-17T17:05:26;18.10;;;8.00;;
74876;SDS011;63425;44.786;37.682;2022-09-17T17:07:52;21.17;;;8.80;;
74876;SDS011;63425;44.786;37.682;2022-09-17T17:10:20;28.98;;;8.40;;
74876;SDS011;63425;44.786;37.682;2022-09-17T17:12:48;32.80;;;8.15;;
74876;SDS011;63425;44.786;37.682;2022-09-17T17:15:16;20.10;;;8.23;;
74876;SDS011;63425;44.786;37.682;2022-09-17T17:17:44;18.05;;;8.57;;
74876;SDS011;63425;44.786;37.682;2022-09-17T17:20:11;28.33;;;9.50;;
74876;SDS011;63425;44.786;37.682;2022-09-17T17:22:42;16.95;;;8.40;;
74876;SDS011;63425;44.786;37.682;2022-09-17T17:25:12;18.92;;;8.80;;
74876;SDS011;63425;44.786;37.682;2022-09-17T17:27:45;28.63;;;9.93;;
74876;SDS011;63425;44.786;37.682;2022-09-17T17:30:12;20.15;;;9.63;;
74876;SDS011;63425;44.786;37.682;2022-09-17T17:32:51;19.25;;;9.32;;
74876;SDS011;63425;44.786;37.682;2022-09-17T17:35:19;19.27;;;9.75;;
74876;SDS011;63425;44.786;37.682;2022-09-17T17:37:46;23.77;;;8.60;;
74876;SDS011;63425;44.786;37.682;2022-09-17T17:40:15;20.25;;;9.48;;
74876;SDS011;63425;44.786;37.682;2022-09-17T17:42:42;33.70;;;9.73;;
74876;SDS011;63425;44.786;37.682;2022-09-17T17:45:16;20.88;;;9.27;;
74876;SDS011;63425;44.786;37.682;2022-09-17T17:47:42;30.33;;;10.40;;
74876;SDS011;63425;44.786;37.682;2022-09-17T17:50:11;24.50;;;10.15;;
74876;SDS011;63425;44.786;37.682;2022-09-17T17:52:36;19.00;;;8.65;;
74876;SDS011;63425;44.786;37.682;2022-09-17T17:55:06;21.90;;;9.77;;